CSN667 UHMA-UHMO
Flight info
| Callsign | CSN667 |
|---|---|
| Flight time | 1h 15m |
| Altitude | 8000 |
| Route | USAMA DCT BETAM DCT GATLI |
| Aircraft | C208/L-SDFGR/C |
Departure
| Time | 2026-05-06 02:59 |
|---|---|
| Airport | Ugolny Yuri Ryktheu Airport (UHMA) |
Arrival
| Time | 2026-05-06 04:15 |
|---|---|
| Airport | Markovo Airport (UHMO) |
| Time | Latitude | Longitude | Altitude | Speed | Heading |
|---|---|---|---|---|---|
| 2026-05-06 02:53 | 64.71551 | 177.73678 | 152 ft | 7 kts | 88° |
| 2026-05-06 02:53 | 64.71599 | 177.73797 | 152 ft | 18 kts | 341° |
| 2026-05-06 02:54 | 64.71722 | 177.73566 | 152 ft | 27 kts | 321° |
| 2026-05-06 02:54 | 64.71867 | 177.73389 | 152 ft | 26 kts | 335° |
| 2026-05-06 02:54 | 64.72044 | 177.73335 | 155 ft | 20 kts | 328° |
| 2026-05-06 02:54 | 64.72204 | 177.73379 | 156 ft | 28 kts | 14° |
| 2026-05-06 02:55 | 64.72416 | 177.73499 | 158 ft | 34 kts | 13° |
| 2026-05-06 02:55 | 64.72660 | 177.73642 | 164 ft | 38 kts | 15° |
| 2026-05-06 02:55 | 64.72747 | 177.73477 | 166 ft | 20 kts | 285° |
| 2026-05-06 02:55 | 64.72826 | 177.73209 | 166 ft | 25 kts | 18° |
| 2026-05-06 02:56 | 64.73017 | 177.73296 | 169 ft | 31 kts | 13° |
| 2026-05-06 02:56 | 64.73244 | 177.73432 | 173 ft | 37 kts | 19° |
| 2026-05-06 02:56 | 64.73507 | 177.73614 | 178 ft | 41 kts | 15° |
| 2026-05-06 02:56 | 64.73694 | 177.73730 | 181 ft | 43 kts | 15° |
| 2026-05-06 02:57 | 64.74096 | 177.73981 | 196 ft | 47 kts | 16° |
| 2026-05-06 02:57 | 64.74415 | 177.74193 | 202 ft | 48 kts | 14° |
| 2026-05-06 02:57 | 64.74743 | 177.74391 | 205 ft | 48 kts | 14° |
| 2026-05-06 02:57 | 64.74948 | 177.74708 | 212 ft | 33 kts | 63° |
| 2026-05-06 02:58 | 64.74920 | 177.75028 | 205 ft | 24 kts | 186° |
| 2026-05-06 02:58 | 64.74846 | 177.74983 | 202 ft | 15 kts | 195° |
| 2026-05-06 02:58 | 64.74653 | 177.74867 | 201 ft | 53 kts | 195° |
| 2026-05-06 02:58 | 64.74134 | 177.74550 | 247 ft | 92 kts | 194° |
| 2026-05-06 02:59 | 64.73466 | 177.74255 | 448 ft | 103 kts | 186° |
| 2026-05-06 02:59 | 64.72730 | 177.73969 | 650 ft | 112 kts | 194° |
| 2026-05-06 02:59 | 64.71965 | 177.73420 | 942 ft | 119 kts | 194° |
| 2026-05-06 02:59 | 64.71142 | 177.72870 | 1282 ft | 126 kts | 195° |
| 2026-05-06 03:00 | 64.70469 | 177.71559 | 1611 ft | 136 kts | 240° |
| 2026-05-06 03:00 | 64.70360 | 177.69390 | 1975 ft | 136 kts | 274° |
| 2026-05-06 03:00 | 64.70452 | 177.67261 | 2345 ft | 129 kts | 271° |
| 2026-05-06 03:00 | 64.70512 | 177.65171 | 2713 ft | 128 kts | 271° |
| 2026-05-06 03:01 | 64.70580 | 177.63092 | 3082 ft | 128 kts | 271° |
| 2026-05-06 03:01 | 64.70644 | 177.61028 | 3449 ft | 126 kts | 272° |
| 2026-05-06 03:01 | 64.70707 | 177.59006 | 3811 ft | 123 kts | 272° |
| 2026-05-06 03:01 | 64.70767 | 177.57029 | 4185 ft | 120 kts | 272° |
| 2026-05-06 03:02 | 64.70823 | 177.55149 | 4570 ft | 115 kts | 271° |
| 2026-05-06 03:02 | 64.70878 | 177.53300 | 4957 ft | 111 kts | 272° |
| 2026-05-06 03:02 | 64.70931 | 177.51523 | 5338 ft | 108 kts | 272° |
| 2026-05-06 03:02 | 64.70983 | 177.49795 | 5712 ft | 104 kts | 271° |
| 2026-05-06 03:03 | 64.71030 | 177.48147 | 6097 ft | 99 kts | 272° |
| 2026-05-06 03:03 | 64.71074 | 177.46605 | 6473 ft | 93 kts | 271° |
| 2026-05-06 03:03 | 64.71116 | 177.45150 | 6819 ft | 86 kts | 271° |
| 2026-05-06 03:03 | 64.71154 | 177.43818 | 7167 ft | 77 kts | 271° |
| 2026-05-06 03:04 | 64.71186 | 177.42603 | 7431 ft | 75 kts | 272° |
| 2026-05-06 03:04 | 64.71222 | 177.41381 | 7674 ft | 75 kts | 271° |
| 2026-05-06 03:04 | 64.71258 | 177.40168 | 7906 ft | 74 kts | 271° |
| 2026-05-06 03:04 | 64.71296 | 177.38883 | 8029 ft | 90 kts | 272° |
| 2026-05-06 03:05 | 64.71349 | 177.37214 | 8047 ft | 115 kts | 273° |
| 2026-05-06 03:05 | 64.71413 | 177.35172 | 8051 ft | 135 kts | 273° |
| 2026-05-06 03:05 | 64.71483 | 177.32853 | 8041 ft | 149 kts | 273° |
| 2026-05-06 03:05 | 64.71556 | 177.30370 | 8030 ft | 156 kts | 273° |
| 2026-05-06 03:06 | 64.71629 | 177.27787 | 8032 ft | 160 kts | 273° |
| 2026-05-06 03:06 | 64.71704 | 177.25160 | 8030 ft | 162 kts | 273° |
| 2026-05-06 03:06 | 64.71776 | 177.22544 | 8032 ft | 163 kts | 273° |
| 2026-05-06 03:06 | 64.71850 | 177.19890 | 8029 ft | 164 kts | 273° |
| 2026-05-06 03:07 | 64.71923 | 177.17221 | 8027 ft | 164 kts | 273° |
| 2026-05-06 03:07 | 64.71996 | 177.14551 | 8027 ft | 164 kts | 273° |
| 2026-05-06 03:07 | 64.72068 | 177.11871 | 8024 ft | 165 kts | 273° |
| 2026-05-06 03:07 | 64.72140 | 177.09195 | 8024 ft | 165 kts | 273° |
| 2026-05-06 03:08 | 64.72212 | 177.06518 | 8022 ft | 165 kts | 273° |
| 2026-05-06 03:08 | 64.72283 | 177.03844 | 8020 ft | 165 kts | 273° |
| 2026-05-06 03:08 | 64.72354 | 177.01159 | 8022 ft | 165 kts | 273° |
| 2026-05-06 03:08 | 64.72424 | 176.98502 | 8020 ft | 165 kts | 273° |
| 2026-05-06 03:09 | 64.72494 | 176.95818 | 8018 ft | 165 kts | 273° |
| 2026-05-06 03:09 | 64.72563 | 176.93136 | 8015 ft | 165 kts | 272° |
| 2026-05-06 03:09 | 64.72632 | 176.90454 | 8016 ft | 165 kts | 272° |
| 2026-05-06 03:09 | 64.72700 | 176.87766 | 8012 ft | 165 kts | 272° |
| 2026-05-06 03:10 | 64.72767 | 176.85109 | 8014 ft | 165 kts | 272° |
| 2026-05-06 03:10 | 64.72835 | 176.82427 | 8014 ft | 165 kts | 272° |
| 2026-05-06 03:10 | 64.72902 | 176.79721 | 8013 ft | 165 kts | 272° |
| 2026-05-06 03:10 | 64.72969 | 176.77026 | 8010 ft | 165 kts | 272° |
| 2026-05-06 03:11 | 64.73035 | 176.74342 | 8008 ft | 165 kts | 272° |
| 2026-05-06 03:11 | 64.73101 | 176.71646 | 8008 ft | 166 kts | 272° |
| 2026-05-06 03:11 | 64.73165 | 176.68988 | 8006 ft | 166 kts | 272° |
| 2026-05-06 03:11 | 64.73230 | 176.66295 | 8006 ft | 166 kts | 272° |
| 2026-05-06 03:12 | 64.73294 | 176.63600 | 8005 ft | 166 kts | 272° |
| 2026-05-06 03:12 | 64.73358 | 176.60898 | 8004 ft | 166 kts | 272° |
| 2026-05-06 03:12 | 64.73421 | 176.58208 | 8005 ft | 166 kts | 272° |
| 2026-05-06 03:12 | 64.73484 | 176.55511 | 8003 ft | 166 kts | 272° |
| 2026-05-06 03:13 | 64.73547 | 176.52811 | 8003 ft | 166 kts | 272° |
| 2026-05-06 03:13 | 64.73608 | 176.50150 | 7997 ft | 166 kts | 272° |
| 2026-05-06 03:13 | 64.73669 | 176.47455 | 7999 ft | 166 kts | 272° |
| 2026-05-06 03:13 | 64.73730 | 176.44754 | 8000 ft | 166 kts | 272° |
| 2026-05-06 03:14 | 64.73790 | 176.42046 | 7994 ft | 166 kts | 272° |
| 2026-05-06 03:14 | 64.73850 | 176.39351 | 7998 ft | 166 kts | 272° |
| 2026-05-06 03:14 | 64.73910 | 176.36656 | 7999 ft | 166 kts | 272° |
| 2026-05-06 03:14 | 64.73968 | 176.33986 | 8001 ft | 166 kts | 272° |
| 2026-05-06 03:15 | 64.74025 | 176.31272 | 7998 ft | 167 kts | 271° |
| 2026-05-06 03:15 | 64.74085 | 176.28547 | 8001 ft | 168 kts | 272° |
| 2026-05-06 03:15 | 64.74143 | 176.25813 | 8001 ft | 168 kts | 272° |
| 2026-05-06 03:15 | 64.74203 | 176.23084 | 8000 ft | 168 kts | 272° |
| 2026-05-06 03:16 | 64.74259 | 176.20357 | 7999 ft | 167 kts | 271° |
| 2026-05-06 03:16 | 64.74314 | 176.17639 | 7999 ft | 167 kts | 272° |
| 2026-05-06 03:16 | 64.74369 | 176.14924 | 7994 ft | 167 kts | 271° |
| 2026-05-06 03:16 | 64.74425 | 176.12216 | 7996 ft | 167 kts | 272° |
| 2026-05-06 03:17 | 64.74480 | 176.09504 | 7997 ft | 166 kts | 271° |
| 2026-05-06 03:17 | 64.74535 | 176.06793 | 7996 ft | 167 kts | 271° |
| 2026-05-06 03:17 | 64.74589 | 176.04067 | 7995 ft | 168 kts | 271° |
| 2026-05-06 03:17 | 64.74643 | 176.01322 | 7997 ft | 169 kts | 271° |
| 2026-05-06 03:18 | 64.74696 | 175.98594 | 7997 ft | 169 kts | 271° |
| 2026-05-06 03:18 | 64.74749 | 175.95843 | 7997 ft | 169 kts | 271° |
| 2026-05-06 03:18 | 64.74799 | 175.93106 | 7993 ft | 167 kts | 271° |
| 2026-05-06 03:18 | 64.74851 | 175.90384 | 7989 ft | 167 kts | 271° |
| 2026-05-06 03:19 | 64.74903 | 175.87662 | 7994 ft | 167 kts | 271° |
| 2026-05-06 03:19 | 64.74953 | 175.84949 | 7998 ft | 167 kts | 271° |
| 2026-05-06 03:19 | 64.74943 | 175.82221 | 7998 ft | 168 kts | 269° |
| 2026-05-06 03:19 | 64.74964 | 175.79491 | 8002 ft | 169 kts | 270° |
| 2026-05-06 03:20 | 64.74986 | 175.74013 | 7991 ft | 167 kts | 269° |
| 2026-05-06 03:20 | 64.74991 | 175.71290 | 7991 ft | 167 kts | 269° |
| 2026-05-06 03:20 | 64.74998 | 175.68566 | 7991 ft | 167 kts | 269° |
| 2026-05-06 03:21 | 64.75003 | 175.65844 | 7989 ft | 167 kts | 269° |
| 2026-05-06 03:21 | 64.75008 | 175.63122 | 7988 ft | 167 kts | 269° |
| 2026-05-06 03:21 | 64.75013 | 175.60437 | 7987 ft | 167 kts | 269° |
| 2026-05-06 03:21 | 64.75016 | 175.57711 | 7986 ft | 167 kts | 269° |
| 2026-05-06 03:22 | 64.75020 | 175.54985 | 7989 ft | 167 kts | 269° |
| 2026-05-06 03:22 | 64.75023 | 175.52264 | 7988 ft | 167 kts | 269° |
| 2026-05-06 03:22 | 64.75026 | 175.49536 | 7984 ft | 167 kts | 269° |
| 2026-05-06 03:22 | 64.75028 | 175.46819 | 7989 ft | 167 kts | 269° |
| 2026-05-06 03:23 | 64.75029 | 175.44099 | 7987 ft | 167 kts | 269° |
| 2026-05-06 03:23 | 64.75029 | 175.41377 | 7988 ft | 167 kts | 269° |
| 2026-05-06 03:23 | 64.75031 | 175.38687 | 7986 ft | 167 kts | 269° |
| 2026-05-06 03:23 | 64.75031 | 175.35949 | 7989 ft | 169 kts | 268° |
| 2026-05-06 03:24 | 64.75028 | 175.33185 | 7990 ft | 170 kts | 269° |
| 2026-05-06 03:24 | 64.75029 | 175.30421 | 7992 ft | 170 kts | 269° |
| 2026-05-06 03:24 | 64.75030 | 175.27648 | 7993 ft | 170 kts | 269° |
| 2026-05-06 03:24 | 64.75029 | 175.24863 | 7996 ft | 171 kts | 268° |
| 2026-05-06 03:25 | 64.75024 | 175.22069 | 7993 ft | 172 kts | 268° |
| 2026-05-06 03:25 | 64.75019 | 175.19282 | 7990 ft | 170 kts | 268° |
| 2026-05-06 03:25 | 64.75017 | 175.16504 | 7989 ft | 169 kts | 268° |
| 2026-05-06 03:25 | 64.75013 | 175.13745 | 7988 ft | 170 kts | 268° |
| 2026-05-06 03:26 | 64.75009 | 175.11008 | 7989 ft | 170 kts | 268° |
| 2026-05-06 03:26 | 64.75006 | 175.08224 | 7992 ft | 170 kts | 268° |
| 2026-05-06 03:26 | 64.75000 | 175.05425 | 7990 ft | 172 kts | 268° |
| 2026-05-06 03:26 | 64.74989 | 175.02619 | 7991 ft | 172 kts | 268° |
| 2026-05-06 03:27 | 64.74985 | 174.99831 | 7992 ft | 170 kts | 268° |
| 2026-05-06 03:27 | 64.74978 | 174.97061 | 7989 ft | 169 kts | 268° |
| 2026-05-06 03:27 | 64.74971 | 174.94301 | 7988 ft | 169 kts | 268° |
| 2026-05-06 03:27 | 64.74961 | 174.91585 | 7988 ft | 169 kts | 268° |
| 2026-05-06 03:28 | 64.74955 | 174.88822 | 7987 ft | 169 kts | 268° |
| 2026-05-06 03:28 | 64.74943 | 174.86061 | 7986 ft | 169 kts | 268° |
| 2026-05-06 03:28 | 64.74935 | 174.83298 | 7991 ft | 170 kts | 268° |
| 2026-05-06 03:28 | 64.74922 | 174.80525 | 7992 ft | 170 kts | 268° |
| 2026-05-06 03:29 | 64.74913 | 174.77755 | 7991 ft | 170 kts | 268° |
| 2026-05-06 03:29 | 64.74901 | 174.74987 | 7988 ft | 169 kts | 268° |
| 2026-05-06 03:29 | 64.74890 | 174.72226 | 7992 ft | 169 kts | 268° |
| 2026-05-06 03:29 | 64.74878 | 174.69504 | 7992 ft | 169 kts | 268° |
| 2026-05-06 03:30 | 64.74865 | 174.66742 | 7991 ft | 169 kts | 267° |
| 2026-05-06 03:30 | 64.74853 | 174.63984 | 7997 ft | 170 kts | 268° |
| 2026-05-06 03:30 | 64.74839 | 174.61205 | 8006 ft | 172 kts | 268° |
| 2026-05-06 03:30 | 64.74822 | 174.58375 | 8005 ft | 173 kts | 267° |
| 2026-05-06 03:31 | 64.74809 | 174.55547 | 7999 ft | 174 kts | 267° |
| 2026-05-06 03:31 | 64.74792 | 174.52732 | 7998 ft | 171 kts | 268° |
| 2026-05-06 03:31 | 64.74777 | 174.49942 | 7998 ft | 172 kts | 267° |
| 2026-05-06 03:31 | 64.74759 | 174.47149 | 7997 ft | 172 kts | 267° |
| 2026-05-06 03:32 | 64.74744 | 174.44385 | 7995 ft | 172 kts | 267° |
| 2026-05-06 03:32 | 64.74727 | 174.41590 | 7995 ft | 171 kts | 267° |
| 2026-05-06 03:32 | 64.74707 | 174.38808 | 7992 ft | 170 kts | 267° |
| 2026-05-06 03:32 | 64.74688 | 174.36040 | 7990 ft | 170 kts | 267° |
| 2026-05-06 03:33 | 64.74666 | 174.33272 | 7991 ft | 170 kts | 267° |
| 2026-05-06 03:33 | 64.74649 | 174.30509 | 7994 ft | 170 kts | 267° |
| 2026-05-06 03:33 | 64.74630 | 174.27733 | 7991 ft | 170 kts | 267° |
| 2026-05-06 03:33 | 64.74609 | 174.24962 | 7989 ft | 170 kts | 267° |
| 2026-05-06 03:34 | 64.74588 | 174.22201 | 7990 ft | 170 kts | 267° |
| 2026-05-06 03:34 | 64.74567 | 174.19440 | 7990 ft | 169 kts | 267° |
| 2026-05-06 03:34 | 64.74544 | 174.16677 | 7990 ft | 169 kts | 267° |
| 2026-05-06 03:34 | 64.74522 | 174.13911 | 7989 ft | 169 kts | 266° |
| 2026-05-06 03:35 | 64.74499 | 174.11142 | 7990 ft | 169 kts | 266° |
| 2026-05-06 03:35 | 64.74475 | 174.08387 | 7996 ft | 170 kts | 267° |
| 2026-05-06 03:35 | 64.74449 | 174.05646 | 7991 ft | 170 kts | 267° |
| 2026-05-06 03:35 | 64.74428 | 174.02881 | 7992 ft | 170 kts | 266° |
| 2026-05-06 03:36 | 64.74402 | 174.00114 | 7990 ft | 170 kts | 266° |
| 2026-05-06 03:36 | 64.74376 | 173.97353 | 7990 ft | 170 kts | 266° |
| 2026-05-06 03:36 | 64.74349 | 173.94586 | 7989 ft | 170 kts | 266° |
| 2026-05-06 03:36 | 64.74323 | 173.91827 | 7991 ft | 170 kts | 266° |
| 2026-05-06 03:37 | 64.74294 | 173.89058 | 7989 ft | 170 kts | 266° |
| 2026-05-06 03:37 | 64.74267 | 173.86292 | 7988 ft | 170 kts | 266° |
| 2026-05-06 03:37 | 64.74237 | 173.83518 | 7993 ft | 171 kts | 266° |
| 2026-05-06 03:37 | 64.74209 | 173.80737 | 7992 ft | 171 kts | 266° |
| 2026-05-06 03:38 | 64.74181 | 173.77996 | 7991 ft | 170 kts | 266° |
| 2026-05-06 03:38 | 64.74151 | 173.75225 | 7990 ft | 170 kts | 266° |
| 2026-05-06 03:38 | 64.74120 | 173.72460 | 7992 ft | 170 kts | 266° |
| 2026-05-06 03:38 | 64.74089 | 173.69689 | 7991 ft | 171 kts | 266° |
| 2026-05-06 03:39 | 64.74056 | 173.66891 | 7992 ft | 172 kts | 266° |
| 2026-05-06 03:39 | 64.74025 | 173.64087 | 7989 ft | 172 kts | 266° |
| 2026-05-06 03:39 | 64.73993 | 173.61294 | 7990 ft | 171 kts | 266° |
| 2026-05-06 03:39 | 64.73959 | 173.58535 | 7990 ft | 172 kts | 266° |
| 2026-05-06 03:40 | 64.73924 | 173.55733 | 7987 ft | 171 kts | 266° |
| 2026-05-06 03:40 | 64.73891 | 173.52942 | 7986 ft | 171 kts | 266° |
| 2026-05-06 03:40 | 64.73856 | 173.50156 | 7986 ft | 171 kts | 266° |
| 2026-05-06 03:40 | 64.73823 | 173.47383 | 7995 ft | 171 kts | 266° |
| 2026-05-06 03:41 | 64.73798 | 173.45530 | 7989 ft | 172 kts | 265° |
| 2026-05-06 03:41 | 64.73763 | 173.42722 | 7994 ft | 173 kts | 265° |
| 2026-05-06 03:41 | 64.73722 | 173.39914 | 7985 ft | 172 kts | 265° |
| 2026-05-06 03:41 | 64.73673 | 173.36191 | 7989 ft | 173 kts | 265° |
| 2026-05-06 03:42 | 64.73635 | 173.33376 | 7988 ft | 172 kts | 266° |
| 2026-05-06 03:42 | 64.73610 | 173.31484 | 7985 ft | 172 kts | 265° |
| 2026-05-06 03:42 | 64.73572 | 173.28719 | 7986 ft | 172 kts | 265° |
| 2026-05-06 03:42 | 64.73532 | 173.25919 | 7988 ft | 172 kts | 265° |
| 2026-05-06 03:43 | 64.73491 | 173.23113 | 7982 ft | 172 kts | 265° |
| 2026-05-06 03:43 | 64.73451 | 173.20318 | 7980 ft | 172 kts | 265° |
| 2026-05-06 03:43 | 64.73410 | 173.17523 | 7983 ft | 171 kts | 265° |
| 2026-05-06 03:43 | 64.73367 | 173.14746 | 7986 ft | 171 kts | 265° |
| 2026-05-06 03:44 | 64.73326 | 173.11947 | 7983 ft | 172 kts | 265° |
| 2026-05-06 03:44 | 64.73284 | 173.09158 | 7981 ft | 171 kts | 265° |
| 2026-05-06 03:44 | 64.73241 | 173.06409 | 7981 ft | 171 kts | 265° |
| 2026-05-06 03:44 | 64.73198 | 173.03625 | 7978 ft | 171 kts | 265° |
| 2026-05-06 03:45 | 64.73154 | 173.00845 | 7984 ft | 172 kts | 265° |
| 2026-05-06 03:45 | 64.73107 | 172.98042 | 7981 ft | 172 kts | 265° |
| 2026-05-06 03:45 | 64.73063 | 172.95249 | 7980 ft | 171 kts | 265° |
| 2026-05-06 03:45 | 64.73015 | 172.92461 | 7979 ft | 171 kts | 265° |
| 2026-05-06 03:46 | 64.72970 | 172.89664 | 7985 ft | 172 kts | 265° |
| 2026-05-06 03:46 | 64.72924 | 172.86838 | 7985 ft | 173 kts | 265° |
| 2026-05-06 03:46 | 64.72878 | 172.84056 | 7979 ft | 173 kts | 265° |
| 2026-05-06 03:46 | 64.72830 | 172.81252 | 7976 ft | 172 kts | 265° |
| 2026-05-06 03:47 | 64.72782 | 172.78452 | 7978 ft | 172 kts | 265° |
| 2026-05-06 03:47 | 64.72731 | 172.75666 | 7978 ft | 171 kts | 265° |
| 2026-05-06 03:47 | 64.72680 | 172.72878 | 7977 ft | 171 kts | 265° |
| 2026-05-06 03:47 | 64.72632 | 172.70093 | 7978 ft | 171 kts | 265° |
| 2026-05-06 03:48 | 64.72581 | 172.67294 | 7978 ft | 173 kts | 265° |
| 2026-05-06 03:48 | 64.72529 | 172.64488 | 7974 ft | 172 kts | 265° |
| 2026-05-06 03:48 | 64.72479 | 172.61699 | 7975 ft | 172 kts | 264° |
| 2026-05-06 03:48 | 64.72425 | 172.58911 | 7975 ft | 171 kts | 264° |
| 2026-05-06 03:49 | 64.72368 | 172.56124 | 7974 ft | 172 kts | 264° |
| 2026-05-06 03:49 | 64.72316 | 172.53322 | 7976 ft | 173 kts | 264° |
| 2026-05-06 03:49 | 64.72260 | 172.50517 | 7972 ft | 171 kts | 264° |
| 2026-05-06 03:49 | 64.72206 | 172.47762 | 7975 ft | 172 kts | 264° |
| 2026-05-06 03:50 | 64.72150 | 172.44967 | 7972 ft | 172 kts | 264° |
| 2026-05-06 03:50 | 64.72092 | 172.42180 | 7967 ft | 170 kts | 264° |
| 2026-05-06 03:50 | 64.72033 | 172.39403 | 7974 ft | 171 kts | 264° |
| 2026-05-06 03:50 | 64.71976 | 172.36595 | 7972 ft | 173 kts | 264° |
| 2026-05-06 03:51 | 64.71917 | 172.33785 | 7975 ft | 173 kts | 264° |
| 2026-05-06 03:51 | 64.71858 | 172.30976 | 7974 ft | 173 kts | 264° |
| 2026-05-06 03:51 | 64.71799 | 172.28174 | 7972 ft | 172 kts | 264° |
| 2026-05-06 03:51 | 64.71739 | 172.25384 | 7976 ft | 171 kts | 264° |
| 2026-05-06 03:52 | 64.71679 | 172.22595 | 7979 ft | 172 kts | 264° |
| 2026-05-06 03:52 | 64.71611 | 172.19769 | 7975 ft | 175 kts | 264° |
| 2026-05-06 03:52 | 64.71552 | 172.16937 | 7974 ft | 173 kts | 264° |
| 2026-05-06 03:52 | 64.71495 | 172.14164 | 7973 ft | 172 kts | 264° |
| 2026-05-06 03:53 | 64.71430 | 172.11367 | 7972 ft | 172 kts | 264° |
| 2026-05-06 03:53 | 64.71366 | 172.08574 | 7968 ft | 173 kts | 264° |
| 2026-05-06 03:53 | 64.71301 | 172.05764 | 7976 ft | 173 kts | 264° |
| 2026-05-06 03:53 | 64.71235 | 172.02961 | 7970 ft | 172 kts | 264° |
| 2026-05-06 03:54 | 64.71172 | 172.00171 | 7968 ft | 173 kts | 264° |
| 2026-05-06 03:54 | 64.71106 | 171.97384 | 7972 ft | 172 kts | 264° |
| 2026-05-06 03:54 | 64.71039 | 171.94569 | 7970 ft | 173 kts | 264° |
| 2026-05-06 03:54 | 64.70975 | 171.91775 | 7980 ft | 172 kts | 264° |
| 2026-05-06 03:55 | 64.70908 | 171.88968 | 7968 ft | 172 kts | 263° |
| 2026-05-06 03:55 | 64.70839 | 171.86168 | 7970 ft | 172 kts | 263° |
| 2026-05-06 03:55 | 64.70771 | 171.83382 | 7967 ft | 171 kts | 263° |
| 2026-05-06 03:55 | 64.70703 | 171.80602 | 7981 ft | 172 kts | 263° |
| 2026-05-06 03:56 | 64.70631 | 171.77782 | 7973 ft | 173 kts | 263° |
| 2026-05-06 03:56 | 64.70563 | 171.74974 | 7971 ft | 173 kts | 264° |
| 2026-05-06 03:56 | 64.70493 | 171.72208 | 7949 ft | 170 kts | 263° |
| 2026-05-06 03:56 | 64.70428 | 171.69603 | 7628 ft | 152 kts | 263° |
| 2026-05-06 03:57 | 64.70368 | 171.67227 | 7329 ft | 142 kts | 263° |
| 2026-05-06 03:57 | 64.70310 | 171.64970 | 7053 ft | 136 kts | 262° |
| 2026-05-06 03:57 | 64.70253 | 171.62787 | 6817 ft | 132 kts | 262° |
| 2026-05-06 03:57 | 64.70197 | 171.60674 | 6606 ft | 129 kts | 262° |
| 2026-05-06 03:58 | 64.70143 | 171.58600 | 6403 ft | 127 kts | 262° |
| 2026-05-06 03:58 | 64.70087 | 171.56492 | 6189 ft | 130 kts | 262° |
| 2026-05-06 03:58 | 64.70032 | 171.54406 | 5966 ft | 128 kts | 262° |
| 2026-05-06 03:58 | 64.69977 | 171.52354 | 5752 ft | 128 kts | 262° |
| 2026-05-06 03:59 | 64.69921 | 171.50276 | 5533 ft | 128 kts | 262° |
| 2026-05-06 03:59 | 64.69866 | 171.48187 | 5323 ft | 129 kts | 262° |
| 2026-05-06 03:59 | 64.69811 | 171.46085 | 5116 ft | 130 kts | 262° |
| 2026-05-06 03:59 | 64.69752 | 171.43959 | 4910 ft | 131 kts | 262° |
| 2026-05-06 04:00 | 64.69689 | 171.41822 | 4702 ft | 132 kts | 262° |
| 2026-05-06 04:00 | 64.69628 | 171.39697 | 4485 ft | 132 kts | 262° |
| 2026-05-06 04:00 | 64.69568 | 171.37583 | 4334 ft | 128 kts | 262° |
| 2026-05-06 04:00 | 64.69485 | 171.35539 | 4195 ft | 125 kts | 256° |
| 2026-05-06 04:01 | 64.69305 | 171.33566 | 4055 ft | 123 kts | 254° |
| 2026-05-06 04:01 | 64.69129 | 171.31613 | 3920 ft | 123 kts | 254° |
| 2026-05-06 04:01 | 64.68952 | 171.29654 | 3779 ft | 123 kts | 254° |
| 2026-05-06 04:01 | 64.68772 | 171.27701 | 3648 ft | 123 kts | 254° |
| 2026-05-06 04:02 | 64.68594 | 171.25751 | 3516 ft | 123 kts | 254° |
| 2026-05-06 04:02 | 64.68413 | 171.23771 | 3394 ft | 125 kts | 254° |
| 2026-05-06 04:02 | 64.68254 | 171.21773 | 3257 ft | 124 kts | 256° |
| 2026-05-06 04:02 | 64.68106 | 171.19836 | 3123 ft | 122 kts | 256° |
| 2026-05-06 04:03 | 64.67961 | 171.17875 | 2986 ft | 123 kts | 256° |
| 2026-05-06 04:03 | 64.67812 | 171.15909 | 2850 ft | 123 kts | 256° |
| 2026-05-06 04:03 | 64.67663 | 171.13947 | 2718 ft | 123 kts | 256° |
| 2026-05-06 04:03 | 64.67529 | 171.11977 | 2586 ft | 123 kts | 258° |
| 2026-05-06 04:04 | 64.67409 | 171.09960 | 2459 ft | 130 kts | 257° |
| 2026-05-06 04:04 | 64.67270 | 171.07910 | 2323 ft | 126 kts | 258° |
| 2026-05-06 04:04 | 64.67145 | 171.05893 | 2254 ft | 121 kts | 258° |
| 2026-05-06 04:04 | 64.67022 | 171.03988 | 2136 ft | 116 kts | 260° |
| 2026-05-06 04:05 | 64.66906 | 171.02137 | 1993 ft | 113 kts | 258° |
| 2026-05-06 04:05 | 64.66793 | 171.00322 | 1879 ft | 113 kts | 258° |
| 2026-05-06 04:05 | 64.66676 | 170.98487 | 1730 ft | 114 kts | 257° |
| 2026-05-06 04:05 | 64.66558 | 170.96649 | 1597 ft | 116 kts | 258° |
| 2026-05-06 04:06 | 64.66437 | 170.94790 | 1458 ft | 116 kts | 258° |
| 2026-05-06 04:06 | 64.66314 | 170.92947 | 1326 ft | 114 kts | 258° |
| 2026-05-06 04:06 | 64.66189 | 170.91129 | 1200 ft | 117 kts | 257° |
| 2026-05-06 04:06 | 64.66048 | 170.89258 | 1075 ft | 114 kts | 258° |
| 2026-05-06 04:07 | 64.65921 | 170.87520 | 1059 ft | 105 kts | 258° |
| 2026-05-06 04:07 | 64.65870 | 170.85858 | 1062 ft | 102 kts | 269° |
| 2026-05-06 04:07 | 64.65964 | 170.84225 | 1058 ft | 100 kts | 277° |
| 2026-05-06 04:07 | 64.66055 | 170.82733 | 1078 ft | 82 kts | 277° |
| 2026-05-06 04:08 | 64.66121 | 170.81496 | 1059 ft | 73 kts | 271° |
| 2026-05-06 04:08 | 64.66176 | 170.80337 | 1070 ft | 77 kts | 270° |
| 2026-05-06 04:08 | 64.66231 | 170.78957 | 1088 ft | 91 kts | 273° |
| 2026-05-06 04:08 | 64.66262 | 170.77460 | 1085 ft | 93 kts | 266° |
| 2026-05-06 04:09 | 64.66261 | 170.75930 | 1082 ft | 93 kts | 266° |
| 2026-05-06 04:09 | 64.66261 | 170.74443 | 1081 ft | 92 kts | 266° |
| 2026-05-06 04:09 | 64.66219 | 170.72961 | 1080 ft | 91 kts | 263° |
| 2026-05-06 04:09 | 64.66179 | 170.71457 | 1074 ft | 94 kts | 264° |
| 2026-05-06 04:10 | 64.66137 | 170.69925 | 1071 ft | 94 kts | 262° |
| 2026-05-06 04:10 | 64.66115 | 170.68438 | 1067 ft | 92 kts | 266° |
| 2026-05-06 04:10 | 64.66100 | 170.66952 | 1067 ft | 90 kts | 265° |
| 2026-05-06 04:10 | 64.66095 | 170.65444 | 987 ft | 95 kts | 269° |
| 2026-05-06 04:11 | 64.66110 | 170.63873 | 874 ft | 99 kts | 269° |
| 2026-05-06 04:11 | 64.66116 | 170.62270 | 779 ft | 98 kts | 270° |
| 2026-05-06 04:11 | 64.66129 | 170.60693 | 696 ft | 97 kts | 270° |
| 2026-05-06 04:11 | 64.66147 | 170.59108 | 612 ft | 98 kts | 271° |
| 2026-05-06 04:12 | 64.66208 | 170.57527 | 528 ft | 98 kts | 276° |
| 2026-05-06 04:12 | 64.66280 | 170.55955 | 476 ft | 95 kts | 275° |
| 2026-05-06 04:12 | 64.66344 | 170.54447 | 466 ft | 92 kts | 275° |
| 2026-05-06 04:12 | 64.66384 | 170.52960 | 467 ft | 92 kts | 274° |
| 2026-05-06 04:13 | 64.66419 | 170.51453 | 445 ft | 92 kts | 274° |
| 2026-05-06 04:13 | 64.66437 | 170.49954 | 401 ft | 92 kts | 271° |
| 2026-05-06 04:13 | 64.66431 | 170.48488 | 382 ft | 92 kts | 272° |
| 2026-05-06 04:13 | 64.66446 | 170.46990 | 302 ft | 92 kts | 275° |
| 2026-05-06 04:14 | 64.66484 | 170.45489 | 235 ft | 92 kts | 273° |
| 2026-05-06 04:14 | 64.66496 | 170.43973 | 146 ft | 94 kts | 272° |
| 2026-05-06 04:14 | 64.66511 | 170.42454 | 99 ft | 92 kts | 276° |
| 2026-05-06 04:14 | 64.66559 | 170.41098 | 122 ft | 69 kts | 296° |
| 2026-05-06 04:15 | 64.66682 | 170.40181 | 96 ft | 64 kts | 258° |
| 2026-05-06 04:15 | 64.66565 | 170.39643 | 87 ft | 12 kts | 110° |
| 2026-05-06 04:15 | 64.66554 | 170.39912 | 90 ft | 25 kts | 87° |
| 2026-05-06 04:15 | 64.66543 | 170.40477 | 97 ft | 43 kts | 93° |
| 2026-05-06 04:16 | 64.66578 | 170.41276 | 89 ft | 51 kts | 71° |
| 2026-05-06 04:16 | 64.66757 | 170.41507 | 92 ft | 17 kts | 14° |
| 2026-05-06 04:16 | 64.66808 | 170.41611 | 94 ft | 9 kts | 126° |
| 2026-05-06 04:16 | 64.66784 | 170.41648 | 93 ft | 0 kts | 194° |
| 2026-05-06 04:17 | 64.66783 | 170.41647 | 93 ft | 0 kts | 194° |